createdAt,value
2018-01-24T00:01:53.421Z,95.40
2018-01-24T00:04:21.739Z,95.40
2018-01-24T00:06:50.028Z,95.40
2018-01-24T00:09:18.348Z,95.40
2018-01-24T00:11:46.639Z,95.60
2018-01-24T00:14:14.955Z,95.60
2018-01-24T00:16:43.244Z,95.60
2018-01-24T00:19:11.555Z,95.60
2018-01-24T00:21:39.840Z,95.70
2018-01-24T00:24:08.149Z,95.70
2018-01-24T00:26:36.435Z,95.60
2018-01-24T00:29:04.744Z,95.70
2018-01-24T00:31:33.044Z,95.70
2018-01-24T00:34:01.365Z,95.60
2018-01-24T00:36:29.660Z,95.50
2018-01-24T00:38:57.964Z,95.60
2018-01-24T00:41:26.246Z,95.60
2018-01-24T00:43:54.556Z,95.60
2018-01-24T00:46:22.843Z,95.60
2018-01-24T00:48:51.153Z,95.50
2018-01-24T00:51:19.435Z,95.50
2018-01-24T00:53:47.753Z,95.50
2018-01-24T00:56:16.046Z,95.40
2018-01-24T00:58:44.359Z,95.50
2018-01-24T01:01:11.883Z,95.50
2018-01-24T01:03:40.206Z,95.70
2018-01-24T01:06:08.584Z,95.80
2018-01-24T01:08:36.867Z,95.80
2018-01-24T01:11:05.175Z,95.70
2018-01-24T01:13:33.473Z,95.70
2018-01-24T01:16:01.812Z,95.60
2018-01-24T01:18:30.103Z,95.60
2018-01-24T01:20:58.415Z,95.50
2018-01-24T01:23:26.707Z,95.50
2018-01-24T01:25:55.027Z,95.50
2018-01-24T01:28:23.333Z,95.50
2018-01-24T01:30:51.653Z,95.50
2018-01-24T01:33:19.953Z,95.50
2018-01-24T01:35:48.272Z,95.50
2018-01-24T01:38:16.618Z,95.50
2018-01-24T01:40:44.907Z,95.60
2018-01-24T01:43:13.192Z,95.60
2018-01-24T01:45:41.499Z,95.60
2018-01-24T01:48:09.792Z,95.60
2018-01-24T01:50:38.104Z,95.50
2018-01-24T01:53:06.404Z,95.50
2018-01-24T01:55:34.719Z,95.60
2018-01-24T01:58:03.012Z,95.60
2018-01-24T02:00:31.311Z,95.60
2018-01-24T02:02:59.599Z,95.60
2018-01-24T02:05:27.908Z,95.60
2018-01-24T02:07:56.200Z,95.60
2018-01-24T02:10:24.507Z,95.60
2018-01-24T02:12:52.804Z,95.60
2018-01-24T02:15:21.121Z,95.70
2018-01-24T02:17:49.431Z,95.60
2018-01-24T02:20:17.746Z,95.60
2018-01-24T02:22:46.043Z,95.60
2018-01-24T02:25:14.364Z,95.60
2018-01-24T02:27:42.665Z,95.60
2018-01-24T02:30:10.976Z,95.60
2018-01-24T02:32:39.268Z,95.70
2018-01-24T02:35:07.585Z,95.60
2018-01-24T02:37:35.872Z,95.60
2018-01-24T02:40:04.189Z,95.60
2018-01-24T02:42:32.492Z,95.70
2018-01-24T02:45:00.808Z,95.80
2018-01-24T02:47:29.112Z,95.80
2018-01-24T02:49:57.420Z,95.80
2018-01-24T02:52:25.717Z,95.80
2018-01-24T02:54:54.013Z,95.80
2018-01-24T02:57:22.322Z,95.70
2018-01-24T02:59:50.619Z,95.80
2018-01-24T03:02:18.928Z,95.80
2018-01-24T03:04:47.212Z,95.80
2018-01-24T03:07:15.528Z,95.80
2018-01-24T03:09:43.811Z,95.80
2018-01-24T03:12:12.124Z,95.80
2018-01-24T03:14:40.404Z,95.90
2018-01-24T03:17:08.712Z,96.00
2018-01-24T03:19:37.004Z,96.00
2018-01-24T03:22:05.311Z,95.90
2018-01-24T03:24:33.588Z,96.20
2018-01-24T03:27:01.888Z,95.80
2018-01-24T03:29:30.172Z,95.90
2018-01-24T03:31:58.488Z,95.80
2018-01-24T03:34:26.784Z,95.90
2018-01-24T03:36:55.092Z,95.90
2018-01-24T03:39:23.371Z,95.90
2018-01-24T03:41:51.689Z,95.90
2018-01-24T03:44:19.976Z,95.80
2018-01-24T03:46:48.295Z,95.90
2018-01-24T03:49:16.579Z,95.80
2018-01-24T03:51:44.892Z,95.80
2018-01-24T03:54:13.179Z,95.20
2018-01-24T03:56:41.496Z,95.10
2018-01-24T03:59:09.784Z,95.70
2018-01-24T04:01:38.105Z,95.20
2018-01-24T04:04:06.413Z,95.10
2018-01-24T04:06:34.726Z,95.00
2018-01-24T04:09:03.011Z,95.00
2018-01-24T04:11:31.327Z,95.00
2018-01-24T04:13:59.624Z,95.00
2018-01-24T04:16:27.946Z,95.00
2018-01-24T04:18:56.227Z,95.00
2018-01-24T04:21:24.550Z,94.90
2018-01-24T04:23:52.838Z,94.90
2018-01-24T04:26:21.187Z,94.80
2018-01-24T04:28:49.484Z,94.80
2018-01-24T04:31:17.791Z,94.80
2018-01-24T04:33:46.080Z,94.70
2018-01-24T04:36:14.371Z,94.50
2018-01-24T04:38:42.692Z,94.50
2018-01-24T04:41:10.984Z,94.50
2018-01-24T04:43:39.293Z,94.40
2018-01-24T04:46:07.579Z,94.40
2018-01-24T04:48:35.892Z,94.40
2018-01-24T04:51:04.188Z,94.20
2018-01-24T04:53:32.503Z,93.90
2018-01-24T04:56:00.792Z,94.10
2018-01-24T04:58:29.108Z,94.10
2018-01-24T05:00:57.399Z,94.10
2018-01-24T05:03:25.712Z,94.00
2018-01-24T05:05:54.013Z,94.20
2018-01-24T05:08:22.333Z,94.20
2018-01-24T05:10:50.624Z,94.20
2018-01-24T05:13:18.172Z,94.20
2018-01-24T05:15:46.468Z,94.10
2018-01-24T05:18:14.780Z,94.10
2018-01-24T05:21:02.789Z,94.00
2018-01-24T05:23:31.100Z,94.00
2018-01-24T05:25:59.402Z,94.00
2018-01-24T05:28:27.739Z,94.00
2018-01-24T05:30:55.263Z,94.00
2018-01-24T05:33:23.565Z,93.80
2018-01-24T05:35:51.861Z,93.70
2018-01-24T05:38:20.176Z,93.70
2018-01-24T05:40:48.472Z,93.80
2018-01-24T05:43:16.788Z,93.80
2018-01-24T05:45:45.076Z,93.90
2018-01-24T05:48:13.385Z,93.80
2018-01-24T05:50:41.684Z,93.90
2018-01-24T05:53:10.001Z,93.80
2018-01-24T05:55:38.287Z,93.80
2018-01-24T05:58:06.599Z,93.60
2018-01-24T06:00:34.895Z,93.60
2018-01-24T06:03:03.207Z,93.60
2018-01-24T06:05:31.494Z,93.60
2018-01-24T06:07:59.799Z,93.60
2018-01-24T06:10:28.101Z,93.70
2018-01-24T06:12:56.420Z,93.70
2018-01-24T06:15:24.714Z,93.70
2018-01-24T06:17:53.029Z,93.60
2018-01-24T06:20:21.324Z,93.70
2018-01-24T06:22:49.636Z,93.80
2018-01-24T06:25:17.932Z,93.70
2018-01-24T06:27:46.248Z,93.50
2018-01-24T06:30:14.558Z,93.60
2018-01-24T06:32:42.903Z,93.50
2018-01-24T06:35:11.219Z,93.50
2018-01-24T06:37:39.534Z,93.50
2018-01-24T06:40:07.868Z,93.50
2018-01-24T06:42:36.182Z,93.50
2018-01-24T06:45:04.527Z,93.50
2018-01-24T06:47:32.842Z,93.50
2018-01-24T06:50:01.183Z,93.70
2018-01-24T06:52:29.502Z,93.70
2018-01-24T06:54:57.846Z,93.80
2018-01-24T06:57:26.156Z,93.80
2018-01-24T06:59:54.491Z,93.70
2018-01-24T07:02:22.800Z,93.70
2018-01-24T07:04:51.161Z,93.70
2018-01-24T07:07:19.474Z,93.70
2018-01-24T07:09:47.813Z,93.70
2018-01-24T07:12:28.182Z,93.90
2018-01-24T07:14:56.538Z,93.70
2018-01-24T07:17:24.854Z,93.70
2018-01-24T07:19:53.196Z,93.70
2018-01-24T07:22:21.516Z,93.70
2018-01-24T07:24:49.848Z,93.80
2018-01-24T07:27:18.154Z,93.70
2018-01-24T07:29:46.495Z,93.60
2018-01-24T07:32:14.810Z,93.60
2018-01-24T07:34:43.150Z,93.50
2018-01-24T07:37:11.474Z,93.60
2018-01-24T07:39:39.814Z,93.50
2018-01-24T07:42:08.131Z,93.40
2018-01-24T07:44:36.454Z,93.40
2018-01-24T07:47:04.765Z,93.30
2018-01-24T07:49:33.103Z,93.40
2018-01-24T07:52:01.420Z,93.40
2018-01-24T07:54:29.750Z,93.30
2018-01-24T07:56:58.067Z,93.30
2018-01-24T07:59:26.407Z,93.30
2018-01-24T08:01:54.732Z,93.30
2018-01-24T08:04:23.079Z,93.30
2018-01-24T08:06:51.399Z,93.20
2018-01-24T08:09:19.738Z,93.20
2018-01-24T08:11:48.076Z,93.10
2018-01-24T08:14:16.409Z,93.00
2018-01-24T08:16:44.719Z,93.00
2018-01-24T08:19:13.124Z,92.90
2018-01-24T08:21:41.444Z,93.00
2018-01-24T08:24:09.754Z,93.00
2018-01-24T08:26:38.086Z,93.00
2018-01-24T08:29:06.403Z,93.00
2018-01-24T08:31:34.736Z,93.00
2018-01-24T08:34:03.054Z,93.00
2018-01-24T08:36:31.391Z,93.00
2018-01-24T08:38:58.939Z,93.00
2018-01-24T08:41:27.591Z,92.90
2018-01-24T08:43:56.024Z,92.80
2018-01-24T08:46:24.319Z,92.60
2018-01-24T08:48:52.635Z,92.50
2018-01-24T08:51:20.972Z,92.30
2018-01-24T08:53:49.281Z,92.20
2018-01-24T08:56:17.614Z,91.90
2018-01-24T08:58:45.935Z,91.50
2018-01-24T09:01:31.983Z,91.20
2018-01-24T09:04:17.767Z,90.90
2018-01-24T09:07:03.692Z,91.00
2018-01-24T09:09:49.559Z,90.90
2018-01-24T09:12:35.558Z,91.00
2018-01-24T09:15:21.470Z,90.90
2018-01-24T09:18:07.391Z,91.10
2018-01-24T09:20:53.390Z,91.10
2018-01-24T09:23:42.506Z,90.70
2018-01-24T09:26:10.849Z,90.50
2018-01-24T09:28:39.165Z,90.60
2018-01-24T09:31:07.503Z,90.50
2018-01-24T09:33:35.821Z,90.50
2018-01-24T09:36:04.153Z,90.60
2018-01-24T09:38:32.484Z,90.20
2018-01-24T09:41:00.804Z,90.00
2018-01-24T09:43:29.146Z,90.10
2018-01-24T09:45:57.473Z,89.70
2018-01-24T09:48:25.805Z,89.30
2018-01-24T09:50:54.127Z,88.60
2018-01-24T09:53:22.462Z,87.60
2018-01-24T09:55:50.782Z,87.60
2018-01-24T09:58:19.113Z,87.60
2018-01-24T10:00:47.434Z,87.80
2018-01-24T10:03:15.775Z,88.50
2018-01-24T10:05:44.086Z,88.30
2018-01-24T10:08:12.423Z,88.50
2018-01-24T10:10:40.739Z,88.50
2018-01-24T10:13:09.076Z,89.00
2018-01-24T10:15:37.388Z,87.90
2018-01-24T10:18:05.718Z,87.60
2018-01-24T10:20:34.041Z,87.80
2018-01-24T10:23:02.433Z,87.30
2018-01-24T10:25:30.752Z,87.50
2018-01-24T10:27:59.121Z,87.50
2018-01-24T10:30:27.453Z,87.20
2018-01-24T10:32:55.785Z,87.00
2018-01-24T10:35:24.111Z,87.70
2018-01-24T10:37:52.467Z,87.80
2018-01-24T10:40:20.785Z,88.30
2018-01-24T10:42:49.239Z,88.30
2018-01-24T10:45:17.555Z,88.80
2018-01-24T10:47:45.952Z,88.70
2018-01-24T10:50:14.263Z,88.40
2018-01-24T10:52:42.587Z,88.00
2018-01-24T10:55:10.928Z,87.80
2018-01-24T10:57:39.251Z,87.30
2018-01-24T11:00:07.600Z,87.70
2018-01-24T11:02:35.919Z,87.70
2018-01-24T11:05:04.260Z,88.10
2018-01-24T11:07:32.601Z,88.70
2018-01-24T11:10:00.940Z,89.10
2018-01-24T11:12:29.262Z,89.40
2018-01-24T11:14:57.620Z,90.00
2018-01-24T11:17:25.934Z,89.60
2018-01-24T11:19:54.272Z,89.50
2018-01-24T11:22:22.586Z,89.40
2018-01-24T11:24:50.919Z,89.40
2018-01-24T11:27:19.231Z,88.90
2018-01-24T11:29:47.563Z,88.20
2018-01-24T11:32:15.870Z,88.60
2018-01-24T11:34:44.207Z,88.20
2018-01-24T11:37:12.517Z,88.30
2018-01-24T11:39:40.850Z,88.00
2018-01-24T11:42:09.176Z,88.20
2018-01-24T11:44:37.510Z,88.10
2018-01-24T11:47:05.814Z,87.80
2018-01-24T11:49:34.152Z,87.90
2018-01-24T11:52:02.471Z,88.00
2018-01-24T11:54:30.817Z,88.10
2018-01-24T11:56:59.129Z,87.30
2018-01-24T11:59:27.463Z,87.40
2018-01-24T12:01:55.771Z,87.60
2018-01-24T12:04:24.106Z,87.60
2018-01-24T12:06:52.414Z,88.30
2018-01-24T12:09:20.759Z,88.50
2018-01-24T12:11:49.075Z,88.30
2018-01-24T12:14:17.409Z,88.30
2018-01-24T12:16:45.731Z,88.40
2018-01-24T12:19:14.076Z,88.50
2018-01-24T12:21:42.398Z,88.70
2018-01-24T12:24:10.750Z,88.80
2018-01-24T12:26:39.075Z,88.60
2018-01-24T12:29:07.410Z,88.80
2018-01-24T12:31:35.725Z,89.00
2018-01-24T12:34:04.062Z,89.00
2018-01-24T12:36:32.389Z,89.20
2018-01-24T12:39:00.719Z,88.40
2018-01-24T12:41:29.052Z,88.60
2018-01-24T12:43:57.368Z,88.90
2018-01-24T12:46:25.712Z,89.30
2018-01-24T12:48:54.035Z,89.50
2018-01-24T12:51:22.390Z,90.10
2018-01-24T12:53:50.701Z,90.20
2018-01-24T12:56:19.046Z,90.40
2018-01-24T12:58:47.366Z,90.50
2018-01-24T13:01:15.699Z,90.50
2018-01-24T13:03:44.016Z,90.50
2018-01-24T13:06:12.359Z,90.30
2018-01-24T13:08:40.672Z,90.60
2018-01-24T13:11:09.002Z,90.70
2018-01-24T13:13:37.318Z,90.50
2018-01-24T13:16:05.687Z,90.50
2018-01-24T13:18:34.020Z,90.40
2018-01-24T13:21:02.367Z,90.20
2018-01-24T13:23:30.687Z,90.00
2018-01-24T13:25:59.023Z,89.80
2018-01-24T13:28:27.345Z,89.60
2018-01-24T13:30:55.683Z,89.60
2018-01-24T13:33:24.011Z,89.50
2018-01-24T13:35:52.347Z,89.70
2018-01-24T13:38:20.672Z,89.60
2018-01-24T13:40:49.010Z,89.40
2018-01-24T13:43:17.328Z,89.60
2018-01-24T13:45:45.683Z,88.90
2018-01-24T13:48:13.990Z,88.50
2018-01-24T13:50:42.327Z,88.70
2018-01-24T13:53:10.654Z,87.90
2018-01-24T13:55:39.055Z,87.40
2018-01-24T13:58:07.473Z,87.10
2018-01-24T14:00:35.919Z,87.30
2018-01-24T14:03:04.449Z,87.80
2018-01-24T14:05:32.920Z,87.80
2018-01-24T14:08:01.450Z,87.60
2018-01-24T14:10:29.981Z,87.60
2018-01-24T14:12:59.350Z,87.70
2018-01-24T14:15:27.842Z,88.20
2018-01-24T14:17:56.223Z,88.70
2018-01-24T14:20:25.116Z,89.00
2018-01-24T14:22:53.435Z,89.30
2018-01-24T14:25:21.758Z,89.60
2018-01-24T14:27:50.086Z,89.80
2018-01-24T14:30:18.551Z,89.80
2018-01-24T14:32:46.943Z,89.00
2018-01-24T14:35:15.282Z,88.80
2018-01-24T14:37:43.632Z,88.90
2018-01-24T14:40:11.946Z,87.20
2018-01-24T14:42:40.283Z,87.60
2018-01-24T14:45:08.595Z,89.00
2018-01-24T14:47:36.945Z,88.70
2018-01-24T14:50:05.420Z,89.00
2018-01-24T14:52:33.845Z,89.60
2018-01-24T14:55:02.299Z,89.00
2018-01-24T14:57:30.850Z,89.30
2018-01-24T15:00:00.388Z,88.10
2018-01-24T15:02:28.793Z,88.30
2018-01-24T15:04:57.357Z,89.00
2018-01-24T15:07:25.714Z,87.80
2018-01-24T15:09:54.023Z,88.20
2018-01-24T15:12:22.356Z,88.50
2018-01-24T15:14:50.669Z,88.80
2018-01-24T15:17:18.999Z,88.30
2018-01-24T15:19:47.319Z,87.90
2018-01-24T15:22:15.651Z,87.60
2018-01-24T15:24:43.985Z,87.50
2018-01-24T15:27:12.317Z,87.90
2018-01-24T15:29:40.627Z,88.00
2018-01-24T15:32:08.973Z,88.30
2018-01-24T15:34:37.359Z,88.50
2018-01-24T15:37:05.700Z,89.10
2018-01-24T15:39:34.020Z,89.90
2018-01-24T15:42:02.354Z,90.10
2018-01-24T15:44:30.671Z,90.40
2018-01-24T15:46:59.017Z,90.40
2018-01-24T15:49:27.350Z,90.30
2018-01-24T15:51:55.679Z,90.00
2018-01-24T15:54:23.990Z,89.70
2018-01-24T15:56:52.323Z,90.00
2018-01-24T15:59:20.641Z,90.10
2018-01-24T16:01:48.988Z,90.40
2018-01-24T16:04:17.304Z,90.60
2018-01-24T16:06:45.654Z,90.50
2018-01-24T16:09:13.979Z,90.30
2018-01-24T16:11:42.297Z,90.10
2018-01-24T16:14:10.632Z,90.10
2018-01-24T16:16:38.949Z,90.10
2018-01-24T16:19:07.285Z,90.20
2018-01-24T16:21:35.615Z,90.10
2018-01-24T16:24:03.945Z,90.00
2018-01-24T16:26:32.246Z,90.10
2018-01-24T16:29:00.590Z,90.00
2018-01-24T16:31:28.905Z,90.20
2018-01-24T16:33:57.251Z,90.40
2018-01-24T16:36:25.587Z,90.20
2018-01-24T16:38:53.910Z,90.10
2018-01-24T16:41:22.223Z,90.20
2018-01-24T16:43:50.576Z,90.30
2018-01-24T16:46:18.895Z,90.50
2018-01-24T16:48:47.237Z,90.30
2018-01-24T16:51:15.553Z,90.20
2018-01-24T16:53:43.891Z,90.20
2018-01-24T16:56:12.211Z,89.90
2018-01-24T16:58:40.552Z,89.40
2018-01-24T17:01:08.867Z,88.50
2018-01-24T17:03:37.227Z,88.80
2018-01-24T17:06:05.560Z,88.20
2018-01-24T17:08:33.898Z,87.90
2018-01-24T17:11:02.226Z,87.50
2018-01-24T17:13:30.563Z,86.80
2018-01-24T17:15:58.884Z,86.40
2018-01-24T17:18:27.222Z,84.50
2018-01-24T17:20:55.546Z,84.80
2018-01-24T17:23:23.915Z,84.50
2018-01-24T17:25:52.246Z,84.30
2018-01-24T17:28:20.583Z,84.20
2018-01-24T17:30:48.897Z,84.20
2018-01-24T17:33:17.236Z,83.70
2018-01-24T17:35:45.548Z,83.30
2018-01-24T17:38:13.880Z,83.50
2018-01-24T17:40:42.208Z,83.60
2018-01-24T17:43:10.550Z,83.50
2018-01-24T17:45:38.878Z,83.80
2018-01-24T17:48:07.230Z,83.20
2018-01-24T17:50:35.540Z,83.20
2018-01-24T17:53:03.854Z,84.10
2018-01-24T17:55:32.194Z,83.40
2018-01-24T17:58:00.526Z,84.20
2018-01-24T18:00:28.860Z,83.10
2018-01-24T18:02:57.173Z,83.60
2018-01-24T18:05:25.519Z,83.50
2018-01-24T18:07:53.836Z,83.00
2018-01-24T18:10:22.186Z,83.00
2018-01-24T18:12:50.515Z,83.30
2018-01-24T18:15:18.852Z,83.40
2018-01-24T18:17:47.174Z,83.10
2018-01-24T18:20:15.523Z,83.20
2018-01-24T18:22:43.849Z,83.50
2018-01-24T18:25:12.191Z,83.10
2018-01-24T18:27:40.506Z,83.00
2018-01-24T18:30:08.841Z,82.60
2018-01-24T18:32:37.171Z,82.60
2018-01-24T18:35:05.504Z,82.40
2018-01-24T18:37:33.817Z,82.70
2018-01-24T18:40:02.167Z,82.80
2018-01-24T18:42:30.488Z,84.00
2018-01-24T18:44:58.837Z,83.10
2018-01-24T18:47:27.155Z,83.30
2018-01-24T18:49:55.517Z,83.10
2018-01-24T18:52:23.840Z,83.50
2018-01-24T18:54:52.186Z,83.70
2018-01-24T18:57:20.498Z,83.60
2018-01-24T18:59:48.836Z,83.90
2018-01-24T19:02:17.165Z,83.80
2018-01-24T19:04:45.513Z,84.00
2018-01-24T19:07:13.831Z,84.20
2018-01-24T19:09:42.201Z,84.20
2018-01-24T19:12:10.513Z,84.20
2018-01-24T19:14:38.855Z,84.40
2018-01-24T19:17:07.166Z,84.40
2018-01-24T19:19:35.498Z,84.50
2018-01-24T19:22:03.824Z,84.60
2018-01-24T19:24:32.168Z,85.00
2018-01-24T19:27:00.488Z,85.10
2018-01-24T19:29:28.828Z,85.00
2018-01-24T19:31:57.267Z,85.00
2018-01-24T19:34:25.604Z,84.90
2018-01-24T19:36:53.942Z,85.00
2018-01-24T19:39:22.251Z,84.90
2018-01-24T19:41:50.591Z,84.70
2018-01-24T19:44:18.913Z,84.50
2018-01-24T19:46:47.250Z,84.40
2018-01-24T19:49:15.564Z,84.20
2018-01-24T19:51:43.895Z,83.90
2018-01-24T19:54:12.214Z,83.80
2018-01-24T19:56:40.552Z,83.50
2018-01-24T19:59:08.868Z,83.60
2018-01-24T20:01:37.214Z,83.70
2018-01-24T20:04:05.542Z,83.70
2018-01-24T20:06:33.886Z,83.20
2018-01-24T20:09:02.199Z,83.30
2018-01-24T20:11:30.536Z,83.40
2018-01-24T20:13:58.846Z,83.30
2018-01-24T20:16:27.198Z,83.50
2018-01-24T20:18:55.510Z,83.40
2018-01-24T20:21:23.846Z,83.60
2018-01-24T20:23:52.155Z,83.50
2018-01-24T20:26:20.499Z,83.50
2018-01-24T20:28:48.828Z,83.40
2018-01-24T20:31:17.183Z,83.70
2018-01-24T20:33:45.498Z,83.70
2018-01-24T20:36:13.834Z,83.50
2018-01-24T20:38:42.150Z,83.60
2018-01-24T20:41:10.484Z,83.50
2018-01-24T20:43:38.804Z,83.40
2018-01-24T20:46:07.151Z,83.30
2018-01-24T20:48:35.472Z,83.60
2018-01-24T20:51:03.798Z,83.70
2018-01-24T20:53:32.114Z,83.70
2018-01-24T20:56:00.469Z,83.60
2018-01-24T20:58:28.778Z,84.00
2018-01-24T21:00:57.241Z,83.70
2018-01-24T21:03:25.554Z,83.60
2018-01-24T21:05:53.888Z,83.60
2018-01-24T21:08:22.204Z,83.60
2018-01-24T21:10:50.553Z,83.40
2018-01-24T21:13:18.883Z,83.60
2018-01-24T21:15:47.218Z,83.60
2018-01-24T21:18:15.530Z,83.80
2018-01-24T21:20:43.851Z,83.30
2018-01-24T21:23:12.199Z,83.70
2018-01-24T21:25:40.518Z,83.90
2018-01-24T21:28:08.864Z,84.10
2018-01-24T21:30:49.020Z,84.00
2018-01-24T21:33:29.092Z,84.20
2018-01-24T21:36:01.859Z,84.50
2018-01-24T21:38:30.186Z,84.30
2018-01-24T21:40:58.499Z,84.30
2018-01-24T21:43:26.850Z,84.10
2018-01-24T21:45:55.170Z,83.80
2018-01-24T21:48:23.524Z,83.80
2018-01-24T21:50:51.845Z,83.80
2018-01-24T21:53:20.187Z,83.70
2018-01-24T21:55:48.507Z,83.80
2018-01-24T21:58:16.854Z,83.70
2018-01-24T22:00:45.195Z,83.80
2018-01-24T22:03:13.538Z,83.80
2018-01-24T22:05:41.869Z,83.60
2018-01-24T22:08:10.220Z,83.60
2018-01-24T22:10:38.548Z,83.50
2018-01-24T22:13:06.910Z,83.60
2018-01-24T22:15:35.229Z,83.70
2018-01-24T22:18:03.578Z,83.90
2018-01-24T22:20:31.894Z,83.80
2018-01-24T22:23:00.235Z,84.20
2018-01-24T22:25:28.569Z,84.30
2018-01-24T22:27:56.915Z,84.00
2018-01-24T22:30:25.227Z,84.20
2018-01-24T22:32:53.562Z,84.40
2018-01-24T22:35:21.878Z,84.40
2018-01-24T22:37:50.217Z,84.30
2018-01-24T22:40:18.526Z,84.20
2018-01-24T22:42:46.871Z,84.10
2018-01-24T22:45:15.207Z,84.30
2018-01-24T22:47:43.542Z,85.10
2018-01-24T22:50:11.850Z,85.90
2018-01-24T22:52:40.183Z,86.60
2018-01-24T22:55:08.495Z,87.00
2018-01-24T22:57:36.845Z,87.40
2018-01-24T23:00:05.154Z,87.70
2018-01-24T23:02:33.471Z,87.70
2018-01-24T23:05:01.807Z,87.90
2018-01-24T23:07:30.125Z,87.70
2018-01-24T23:09:58.460Z,88.00
2018-01-24T23:12:26.767Z,87.90
2018-01-24T23:14:55.112Z,88.10
2018-01-24T23:17:23.427Z,87.90
2018-01-24T23:19:51.759Z,87.70
2018-01-24T23:22:20.074Z,87.50
2018-01-24T23:24:48.406Z,87.40
2018-01-24T23:27:16.728Z,87.50
2018-01-24T23:29:45.068Z,87.60
2018-01-24T23:32:13.391Z,88.10
2018-01-24T23:34:41.730Z,88.40
2018-01-24T23:37:10.042Z,88.50
2018-01-24T23:39:38.383Z,88.50
2018-01-24T23:42:06.695Z,88.30
2018-01-24T23:44:35.041Z,88.30
2018-01-24T23:47:03.362Z,88.70
2018-01-24T23:49:31.694Z,89.40
2018-01-24T23:52:00.030Z,89.70
2018-01-24T23:54:28.374Z,90.10
2018-01-24T23:56:56.702Z,90.20
2018-01-24T23:59:25.026Z,90.20
